釜山 の空港の天気 - METARとTAF

金海国際空港 ( RKPK / PUS ) - 韓国 釜山広域市
飛行場実況気象(Metar)
観測時間05/26 09:00 KST (05/26 00:00 UTC)
風向・風速西北西 3m/s
視程10km以上
天気現象
少しの雲 雲底高度 1220m
全天の8割程度の雲 雲底高度 6100m
気温24℃
湿度44%
気圧1005hPa
METARRKPK 260000Z 30005KT 9999 FEW040 BKN200 24/11 Q1005
過去の天気等 Google飛行場航空写真 Wunderground天気予報

過去48時間のMETAR

飛行場予報(TAF)
発表時間: 5/26 08:00 KST (5/25 23:00 UTC)
予報対象時間: 26日9時 KST ~ 27日15時 KST
風向・風速南南西 3m/s
視程10km以上
なし
26日11時 KST ~ 26日12時 KST に徐々に
風向・風速南南西 6m/s
TAF RKPK 252300Z 2600/2706 21006KT CAVOK TX28/2606Z TN15/2621Z
BECMG 2602/2603 21012KT